Mason Valley Wildlife Refuge, Nevada Weather observations

Data are for 10 minute period ending at time listed.
 Day   Time   Solar   Ave.   Ave.  Ave.  Vector  Max.   Baro.   Total    
  of    of     Rad.   Air    Rel.  Wind   Wind   Wind  Press.  Precip.   
Year   Day            Temp.  Hum.  Speed  Dir.   Gust                    
2015   (PST)  Kw/m2    F      %     mph   deg.    mph    mb.     in.     
-------------------------------------------------------------------------
 239    8:50   0.56   76.4    30    1.3   334     3.0   874.2    0.00 
 239    9:00   0.59   78.4    28    1.1   250     2.3   874.1    0.00 
 239    9:10   0.62   79.2    27    1.6   258     3.4   874.0    0.00 
 239    9:20   0.64   79.5    26    1.5   310     3.4   874.0    0.00 
 239    9:30   0.67   80.3    24    1.4   278     4.3   874.0    0.00 
 239    9:40   0.70   80.7    24    3.4    69     7.7   874.0    0.00 
 239    9:50   0.72   80.7    24    3.9   103     8.0   873.9    0.00 
 239   10:00   0.74   81.2    23    3.2   105     7.6   873.8    0.00 
 239   10:10   0.77   82.3    23    2.8    95     6.7   873.8    0.00 
 239   10:20   0.78   82.9    23    3.0   102     6.6   873.8    0.00 
 239   10:30   0.80   83.4    22    1.7    74     5.0   873.8    0.00 
 239   10:40   0.82   84.2    23    3.0    99    10.7   873.8    0.00 
 239   10:50   0.83   83.8    23    4.1   164    11.5   873.7    0.00 
 239   11:00   0.85   84.3    24    3.4   214     9.0   873.7    0.00 
 239   11:10   0.86   84.4    22    2.5   241     6.0   873.6    0.00 
 239   11:20   0.87   85.6    24    3.3   196     8.3   873.6    0.00 
 239   11:30   0.88   85.2    23    4.5   271    11.2   873.5    0.00 
 239   11:40   0.89   85.2    22    3.6   322     6.1   873.4    0.00 
 239   11:50   0.89   86.1    21    3.2   141     8.8   873.3    0.00 
 239   12:00   0.89   86.1    21    3.4   185     9.1   873.2    0.00 
 239   12:10   0.90   86.1    20    5.2   154    11.3   873.0    0.00 
 239   12:20   0.92   86.3    21    6.0    83    11.8   872.9    0.00 
 239   12:30   0.93   86.4    19    5.1   113    11.8   872.7    0.00 
 239   12:40   0.89   87.1    19    5.7   104    11.3   872.5    0.00 
 239   12:50   0.91   87.8    21    4.7   155    11.1   872.4    0.00 
 239   13:00   0.70   87.4    20    6.7   136    15.6   872.3    0.00 
 239   13:10   0.61   86.5    20    5.5   141    11.6   872.2    0.00 
 239   13:20   0.73   85.9    20    5.5   170    14.5   872.1    0.00 
 239   13:30   0.59   87.0    18    3.0   165     8.3   872.0    0.00 
 239   13:40   0.94   88.2    20    4.8   163    13.4   871.8    0.00 
 239   13:50   0.51   87.2    21    5.2   208    13.7   871.7    0.00 
 239   14:00   0.28   85.2    22    4.1   216     8.9   871.7    0.00 
 239   14:10   0.68   86.4    20    2.1   307     5.6   871.5    0.00 
 239   14:20   0.84   89.0    19    2.5   283     6.4   871.4    0.00 
 239   14:30   0.77   88.4    19    4.6   248    11.8   871.3    0.00 
 239   14:40   0.77   88.5    19    4.3   244     9.3   871.1    0.00 
 239   14:50   0.76   88.2    19    3.9   239     8.1   871.0    0.00 
 239   15:00   0.74   89.2    17    1.9   261     4.9   870.8    0.00 
 239   15:10   0.62   89.0    20    4.2   311     8.0   870.7    0.00 
 239   15:20   0.61   87.6    21    4.7   344     9.6   870.7    0.00 
 239   15:30   0.55   87.6    20    4.5   335     8.8   870.6    0.00 
 239   15:40   0.58   88.2    19    5.1   296     9.5   870.5    0.00 
 239   15:50   0.53   88.3    18    5.1   292    10.2   870.4    0.00 
 239   16:00   0.47   88.1    20    3.4   325     7.9   870.4    0.00 
 239   16:10   0.40   87.7    21    4.5   318    11.3   870.4    0.00 
 239   16:20   0.40   87.1    20    5.2   331     8.8   870.3    0.00 
 239   16:30   0.28   85.7    21    5.3    21     8.2   870.3    0.00 
 239   16:40   0.41   87.2    21    3.6   348    12.9   870.1    0.00 
 239   16:50   0.36   86.3    21    6.6   350    11.7   870.1    0.00 
 239   17:00   0.31   86.5    20    6.8   334    12.1   870.1    0.00 
 239   17:10   0.21   86.0    20    6.6   335    10.9   870.1    0.00 
 239   17:20   0.09   84.8    20    7.5   336    11.5   870.0    0.00 
 239   17:30   0.07   83.6    22    6.6   341     9.9   869.9    0.00 
 239   17:40   0.11   83.1    23    4.2   340     7.4   869.8    0.00 
 239   17:50   0.12   82.5    24    5.5   348    12.1   869.7    0.00 
 239   18:00   0.05   83.5    21    6.6   329    11.6   869.5    0.00 
 239   18:10   0.05   83.3    20    8.1   330    15.1   869.6    0.00 
 239   18:20   0.03   83.1    20    7.5   330    12.9   869.7    0.00 
 239   18:30   0.01   82.3    20    7.0   323    12.4   869.7    0.00 
 239   18:40   0.01   81.7    21    6.6   313    10.5   869.8    0.00 
 239   18:50   0.00   80.3    22    6.1   279    10.8   869.8    0.00 
 239   19:00   0.00   78.5    24    4.6   292    12.4   869.7    0.00 
 239   19:10   0.00   77.1    26    4.5   339     6.2   869.8    0.00 
 239   19:20   0.00   77.6    25    3.4   328     5.8   869.9    0.00 
 239   19:30   0.00   75.5    27    3.9   342     5.7   870.0    0.00 
 239   19:40   0.00   76.0    26    4.9   327     7.3   870.1    0.00 
 239   19:50   0.00   77.6    25    4.0   325     7.2   870.2    0.00 
 239   20:00   0.00   76.8    25    3.3   327     6.8   870.4    0.00 
 239   20:10   0.00   75.8    26    3.1   314     5.2   870.5    0.00 
 239   20:20   0.00   75.2    27    2.9   308     5.8   870.7    0.00 
 239   20:30   0.00   74.9    27    4.5   332     6.7   870.8    0.00 
 239   20:40   0.00   75.1    27    4.0   328     6.9   870.8    0.00 
 239   20:50   0.00   74.6    27    3.9   321     6.7   870.9    0.00 
 239   21:00   0.00   73.8    28    3.5   321     6.4   871.0    0.00 
 239   21:10   0.00   72.9    28    3.2   286     5.6   871.2    0.00 
 239   21:20   0.00   71.6    30    3.2   278     4.5   871.3    0.00 
 239   21:30   0.00   72.0    30    3.8   318     6.0   871.2    0.00 
 239   21:40   0.00   73.3    29    4.3   320     8.1   871.3    0.00 
 239   21:50   0.00   73.3    29    3.6   316     6.7   871.4    0.00 
 239   22:00   0.00   72.3    30    3.3   289     5.3   871.4    0.00 
 239   22:10   0.00   71.0    31    2.8   287     4.2   871.4    0.00 
 239   22:20   0.00   70.3    32    3.0   281     4.9   871.4    0.00 
 239   22:30   0.00   69.8    32    2.6   288     4.2   871.3    0.00 
 239   22:40   0.00   70.2    32    2.7   287     4.1   871.2    0.00 
 239   22:50   0.00   69.5    33    2.2   278     3.8   871.2    0.00 
 239   23:00   0.00   68.9    34    2.9   252     4.2   871.3    0.00 
 239   23:10   0.00   68.0    36    3.4   254     4.5   871.3    0.00 
 239   23:20   0.00   68.1    36    3.1   256     4.1   871.4    0.00 
 239   23:30   0.00   68.7    35    2.9   259     3.7   871.5    0.00 
 239   23:40   0.00   69.1    34    3.1   270     3.9   871.5    0.00 
 239   23:50   0.00   66.6    40    3.1   213     4.0   871.5    0.00 
 240    0:00   0.00   61.6    51    3.0   208     4.5   871.5    0.00 
 240    0:10   0.00   64.1    43    2.5   246     4.0   871.5    0.00 
 240    0:20   0.00   65.1    42    2.4   251     3.4   871.5    0.00 
 240    0:30   0.00   66.1    40    3.4   242     4.5   871.5    0.00 
 240    0:40   0.00   66.5    39    4.0   246     5.0   871.6    0.00 
 240    0:50   100.00  99999.0   99999  99999.0   99999   99999.0   99999.0   99999.00 
 240    1:00   100.00  99999.0   99999  99999.0   99999   99999.0   99999.0   99999.00 
 240    1:10   100.00  99999.0   99999  99999.0   99999   99999.0   99999.0   99999.00 
 240    1:20   100.00  99999.0   99999  99999.0   99999   99999.0   99999.0   99999.00 
 240    1:30   100.00  99999.0   99999  99999.0   99999   99999.0   99999.0   99999.00 
 240    1:40   100.00  99999.0   99999  99999.0   99999   99999.0   99999.0   99999.00 
 240    1:50   0.00   57.3    50    2.4   167     3.1   871.6    0.00 
 240    2:00   0.00   56.6    52    1.4   190     2.3   871.6    0.00 
 240    2:10   0.00   56.4    52    2.0   180     3.2   871.5    0.00 
 240    2:20   0.00   55.7    51    2.2   126     3.1   871.5    0.00 
 240    2:30   0.00   56.4    51    2.6   165     3.1   871.4    0.00 
 240    2:40   100.00  99999.0   99999  99999.0   99999   99999.0   99999.0   99999.00 
 240    2:50   0.00   56.0    53    1.9   168     2.6   871.3    0.00 
 240    3:00   0.00   56.4    52    2.4   201     3.4   871.3    0.00 
 240    3:10   0.00   56.6    54    2.4   223     3.6   871.3    0.00 
 240    3:20   0.00   57.1    53    3.1   223     4.2   871.2    0.00 
 240    3:30   0.00   54.5    61    1.7   192     2.9   871.3    0.00 
 240    3:40   0.00   53.0    59    1.7   139     3.1   871.3    0.00 
 240    3:50   0.00   52.9    60    3.0   166     3.9   871.3    0.00 
 240    4:00   0.00   52.7    60    2.7   145     3.8   871.3    0.00 
 240    4:10   0.00   53.4    61    2.4   163     4.0   871.3    0.00 
 240    4:20   0.00   54.3    60    1.3   124     2.4   871.4    0.00 
 240    4:30   0.00   54.0    59    2.2   110     3.2   871.4    0.00 
 240    4:40   0.00   52.6    62    1.2   102     2.5   871.4    0.00 
 240    4:50   0.00   51.7    62    1.0   122     1.8   871.3    0.00 
 240    5:00   0.00   51.3    63    0.3   126     1.2   871.3    0.00 
 240    5:10   0.00   52.1    60    1.8   241     3.7   871.4    0.00 
 240    5:20   0.00   51.9    68    0.7   277     1.7   871.4    0.00 
 240    5:30   0.01   51.0    69    1.4   232     2.6   871.4    0.00 
 240    5:40   0.01   49.9    71    1.0   175     2.4   871.5    0.00 
 240    5:50   0.03   49.9    69    0.3   219     2.2   871.5    0.00 
 240    6:00   0.04   52.9    62    1.2   222     2.3   871.7    0.00 
 240    6:10   0.06   52.9    69    0.4   266     1.6   871.7    0.00 
 240    6:20   0.08   53.2    73    1.1   356     2.1   871.8    0.00 
 240    6:30   0.11   55.8    71    0.0     0     0.0   871.7    0.00 
 240    6:40   0.14   58.8    66    0.1   354     0.9   871.8    0.00 
 240    6:50   0.17   61.6    58    0.1    21     1.7   871.8    0.00 
 240    7:00   0.20   62.0    56    0.6    26     1.5   871.9    0.00 
 240    7:10   0.23   63.7    57    0.5    28     1.1   871.9    0.00 
 240    7:20   0.24   66.7    52    0.0     0     0.0   871.9    0.00 
 240    7:30   0.29   69.0    44    0.0     0     0.0   871.9    0.00 
 240    7:40   0.33   70.1    41    0.2    22     1.1   871.9    0.00 
 240    7:50   0.36   70.6    40    0.7   341     1.8   871.9    0.00 
 240    8:00   0.37   73.0    39    0.3   277     1.8   871.8    0.00 
 240    8:10   0.38   75.1    36    0.4   240     2.6   871.7    0.00 
 240    8:20   0.39   75.1    34    0.7   225     1.8   871.6    0.00 
 240    8:30   0.49   75.5    34    1.3   235     3.2   871.5    0.00 
 240    8:40   0.51   76.3    29    0.9   230     3.1   871.4    0.00 

Return to Mason Valley Wildlife Refuge graphs page.


Western Regional Climate Center,wrcc@dri.edu